Alabama Port, Alabama
Current Conditions -  °F | °C
As of 7:53 PM on Friday 24 Oct 2014 (Local Time) from KBFM Reporting Station
Clear Clear  
Wind Chill: 14°   Ceiling: Unl
Heat Index: 14°   Visibility: 10mi
Dew Point:   Wind: 5mph
Humidity: 72%   Direction: 310°NW
Pressure: 30.07"   Gusts: NA
Location:  30.4032°N, 88.1801°W
Report Text: KBFM 250053Z 31004KT 10SM CLR 14/09 A3007 RMK AO2 SLP181 T01440094
Loading
Personal Weather Stations






























Interactive Weather Map
Tropical Storm Tracking
New forecast layout! Learn more

10-Day Weather Forecast

Advertisements
Track Severe Weather on mobile